Time;durP1;ratioP1;P1;durP2;ratioP2;P2;SDS_P1;SDS_P2;PMS_P1;PMS_P2;Temp;Humidity;BMP_temperature;BMP_pressure;BME280_temperature;BME280_humidity;BME280_pressure;Samples;Min_cycle;Max_cycle;Signal;HPM_P1;HPM_P2
2022/06/27 00:01:44;;;;;;;;;;;;;;;21.39;32.07;97947.19;5037591;28;1906;-78
2022/06/27 00:04:10;;;;;;;;;;;;;;;21.23;31.99;97950.00;5016870;28;1063;-77
2022/06/27 00:06:35;;;;;;;;;;;;;;;21.37;31.98;97949.69;5017493;28;1017;-78
2022/06/27 00:09:01;;;;;;;;;;;;;;;21.39;31.63;97952.06;5017159;28;1042;-78
2022/06/27 00:11:26;;;;;;;;;;;;;;;21.16;32.07;97950.19;5016690;28;1193;-78
2022/06/27 00:13:52;;;;;;;;;;;;;;;21.05;32.30;97959.75;5016774;28;1035;-78
2022/06/27 00:16:17;;;;;;;;;;;;;;;21.31;31.44;97957.91;5016970;28;1060;-77
2022/06/27 00:18:42;;;;;;;;;;;;;;;21.33;31.46;97961.06;5016605;28;1106;-77
2022/06/27 00:21:08;;;;;;;;;;;;;;;21.25;31.73;97956.03;5016673;28;1067;-78
2022/06/27 00:23:33;;;;;;;;;;;;;;;21.33;31.54;97966.75;5016988;28;1914;-78
2022/06/27 00:25:59;;;;;;;;;;;;;;;21.28;31.38;97963.63;5016920;28;965;-78
2022/06/27 00:28:24;;;;;;;;;;;;;;;21.25;31.32;97947.56;5016993;28;901;-77
2022/06/27 00:30:50;;;;;;;;;;;;;;;21.65;31.69;97959.41;5000571;28;1265;-78
2022/06/27 00:33:16;;;;;;;;;;;;;;;21.74;31.84;97956.75;5016866;28;1115;-78
2022/06/27 00:35:41;;;;;;;;;;;;;;;21.72;31.71;97964.91;5030852;28;1140;-78
2022/06/27 00:38:07;;;;;;;;;;;;;;;21.64;31.87;97963.50;5036630;28;974;-77
2022/06/27 00:40:32;;;;;;;;;;;;;;;21.42;31.76;97966.13;5036251;28;1102;-78
2022/06/27 00:42:58;;;;;;;;;;;;;;;21.47;31.42;97959.91;5019894;28;1903;-77
2022/06/27 00:45:23;;;;;;;;;;;;;;;21.51;31.34;97957.00;5036729;28;1085;-77
2022/06/27 00:47:50;;;;;;;;;;;;;;;21.32;31.62;97951.00;5019874;28;1059;-77
2022/06/27 00:50:15;;;;;;;;;;;;;;;21.38;31.69;97950.47;5019859;28;1041;-78
2022/06/27 00:52:41;;;;;;;;;;;;;;;21.11;31.75;97948.69;5019122;28;1791;-77
2022/06/27 00:55:07;;;;;;;;;;;;;;;21.29;31.46;97943.34;5036049;28;977;-77
2022/06/27 00:57:33;;;;;;;;;;;;;;;21.25;31.91;97941.88;5019488;28;1122;-78
2022/06/27 00:59:58;;;;;;;;;;;;;;;21.38;31.41;97944.81;5019933;28;1124;-78
2022/06/27 01:02:24;;;;;;;;;;;;;;;21.24;31.62;97940.28;5036436;28;1906;-77
2022/06/27 01:04:49;;;;;;;;;;;;;;;21.24;31.90;97941.09;5003199;28;1029;-76
2022/06/27 01:07:15;;;;;;;;;;;;;;;21.07;32.19;97948.78;5019690;28;1252;-78
2022/06/27 01:09:40;;;;;;;;;;;;;;;21.06;32.30;97946.41;5036218;28;999;-78
2022/06/27 01:12:06;;;;;;;;;;;;;;;21.23;31.79;97950.81;5030645;28;1089;-77
2022/06/27 01:14:31;;;;;;;;;;;;;;;21.14;32.12;97950.66;4979391;28;1025;-77
2022/06/27 01:16:57;;;;;;;;;;;;;;;21.46;32.59;97949.03;4957536;29;1192;-78
2022/06/27 01:19:23;;;;;;;;;;;;;;;21.70;32.30;97947.56;4957865;29;1289;-78
2022/06/27 01:21:49;;;;;;;;;;;;;;;21.87;31.91;97953.19;4957822;29;1902;-78
2022/06/27 01:24:18;;;;;;;;;;;;;;;21.60;31.99;97957.13;4903375;29;1265;-77
2022/06/27 01:26:43;;;;;;;;;;;;;;;21.46;32.15;97944.19;4887870;29;1103;-78
2022/06/27 01:29:13;;;;;;;;;;;;;;;21.39;32.35;97952.06;4888560;29;1087;-78
2022/06/27 01:31:38;;;;;;;;;;;;;;;21.35;31.96;97951.34;4881813;29;974;-77
2022/06/27 01:34:04;;;;;;;;;;;;;;;21.33;31.87;97949.75;4863165;29;1107;-77
2022/06/27 01:36:42;;;;;;;;;;;;;;;21.33;31.84;97949.75;4862998;29;1311;-78
2022/06/27 01:39:35;;;;;;;;;;;;;;;21.26;32.02;97955.59;4862883;29;1245;-77
2022/06/27 01:42:02;;;;;;;;;;;;;;;21.14;31.91;97953.47;4792902;29;1969;-77
2022/06/27 01:44:28;;;;;;;;;;;;;;;21.25;31.77;97951.16;4774210;29;1267;-78
2022/06/27 01:46:59;;;;;;;;;;;;;;;21.37;31.50;97940.38;4810425;29;1055;-78
2022/06/27 01:49:25;;;;;;;;;;;;;;;21.35;31.46;97955.00;4844657;29;1222;-78
2022/06/27 01:51:51;;;;;;;;;;;;;;;21.24;31.92;97958.06;4829506;29;1098;-78
2022/06/27 01:54:17;;;;;;;;;;;;;;;21.32;31.35;97951.00;4827614;29;1123;-77
2022/06/27 01:56:44;;;;;;;;;;;;;;;21.15;31.84;97955.06;4844128;29;1197;-78
2022/06/27 01:59:10;;;;;;;;;;;;;;;21.31;31.40;97957.91;4843730;29;1567;-78
2022/06/27 02:01:35;;;;;;;;;;;;;;;21.42;32.12;97957.63;4844189;29;1974;-78
2022/06/27 02:04:01;;;;;;;;;;;;;;;21.61;32.08;97958.75;4843630;29;1004;-78
2022/06/27 02:06:29;;;;;;;;;;;;;;;21.79;31.94;97964.69;4862577;29;988;-78
2022/06/27 02:08:55;;;;;;;;;;;;;;;21.68;31.97;97957.75;4862647;29;1111;-78
2022/06/27 02:11:21;;;;;;;;;;;;;;;21.50;32.01;97958.22;4862360;29;1341;-77
2022/06/27 02:13:51;;;;;;;;;;;;;;;21.41;31.84;97958.09;4862483;29;1296;-77
2022/06/27 02:16:19;;;;;;;;;;;;;;;21.29;31.84;97960.34;4865304;29;1289;-77
2022/06/27 02:18:44;;;;;;;;;;;;;;;21.36;31.60;97964.28;4898625;29;1154;-78
2022/06/27 02:21:10;;;;;;;;;;;;;;;21.47;31.22;97961.97;4918708;29;979;-78
2022/06/27 02:23:36;;;;;;;;;;;;;;;21.37;31.60;97974.34;4902433;29;1892;-78
2022/06/27 02:26:01;;;;;;;;;;;;;;;21.17;32.02;97972.38;4949328;29;990;-78
2022/06/27 02:28:27;;;;;;;;;;;;;;;21.25;32.00;97965.31;4918346;29;904;-78
2022/06/27 02:30:53;;;;;;;;;;;;;;;21.21;32.04;97970.28;4902268;29;1258;-78
2022/06/27 02:33:18;;;;;;;;;;;;;;;21.32;31.88;97970.81;4901943;29;1393;-78
2022/06/27 02:35:44;;;;;;;;;;;;;;;21.28;31.59;97969.28;4903249;29;1019;-78
2022/06/27 02:38:10;;;;;;;;;;;;;;;21.22;31.86;97966.19;4914158;29;1023;-77
2022/06/27 02:40:39;;;;;;;;;;;;;;;21.17;31.76;97963.91;4902439;29;1133;-77
2022/06/27 02:43:04;;;;;;;;;;;;;;;21.54;32.39;97970.25;4918026;29;1989;-78
2022/06/27 02:45:30;;;;;;;;;;;;;;;21.50;32.65;97963.88;4918317;29;1042;-78
2022/06/27 02:47:56;;;;;;;;;;;;;;;21.74;32.01;97976.56;4918335;29;985;-78
2022/06/27 02:50:22;;;;;;;;;;;;;;;21.41;32.38;97973.03;4918034;29;1082;-78
2022/06/27 02:52:50;;;;;;;;;;;;;;;21.45;32.47;97973.72;4918143;29;1141;-77
2022/06/27 02:55:17;;;;;;;;;;;;;;;21.33;32.09;97972.41;4918077;29;1289;-78
2022/06/27 02:57:59;;;;;;;;;;;;;;;21.43;31.87;97969.75;4917635;29;1059;-78
2022/06/27 03:00:27;;;;;;;;;;;;;;;21.27;32.27;97976.97;4898899;29;957;-78
2022/06/27 03:02:53;;;;;;;;;;;;;;;21.32;32.00;97970.81;4914600;29;1985;-78
2022/06/27 03:05:26;;;;;;;;;;;;;;;21.36;31.79;97967.09;4899278;29;1220;-78
2022/06/27 03:07:52;;;;;;;;;;;;;;;21.35;31.74;97974.00;4883195;29;1243;-77
2022/06/27 03:10:18;;;;;;;;;;;;;;;21.25;31.88;97973.03;4883312;29;1487;-78
2022/06/27 03:12:46;;;;;;;;;;;;;;;21.13;32.24;97974.50;4901551;29;1173;-77
2022/06/27 03:15:13;;;;;;;;;;;;;;;21.17;32.04;97975.22;4936314;29;1149;-77
2022/06/27 03:17:38;;;;;;;;;;;;;;;21.18;31.83;97973.19;4936566;29;1062;-78
2022/06/27 03:20:22;;;;;;;;;;;;;;;21.19;31.67;97972.75;4936827;29;1066;-78
2022/06/27 03:23:01;;;;;;;;;;;;;;;21.27;31.54;97964.88;4920556;29;1899;-78
2022/06/27 03:25:28;;;;;;;;;;;;;;;21.33;31.20;97969.56;4867515;29;1130;-79
2022/06/27 03:27:54;;;;;;;;;;;;;;;21.58;31.80;97966.09;4898800;29;1621;-78
2022/06/27 03:30:22;;;;;;;;;;;;;;;21.70;32.32;97972.25;4903870;29;2110;-78
2022/06/27 03:32:48;;;;;;;;;;;;;;;21.87;31.91;97970.19;4912963;29;1683;-78
2022/06/27 03:35:17;;;;;;;;;;;;;;;21.94;31.86;97976.44;4908999;29;1657;-78
2022/06/27 03:37:42;;;;;;;;;;;;;;;21.93;31.62;97974.84;4948759;29;1133;-79
2022/06/27 03:40:08;;;;;;;;;;;;;;;21.61;31.95;97972.91;4960006;29;993;-79
2022/06/27 03:42:37;;;;;;;;;;;;;;;21.56;31.85;97974.25;4956885;29;1911;-76
2022/06/27 03:45:03;;;;;;;;;;;;;;;21.46;31.99;97980.19;4959572;29;1010;-78
2022/06/27 03:47:29;;;;;;;;;;;;;;;21.53;31.93;97979.97;4959224;29;1431;-78
2022/06/27 03:50:13;;;;;;;;;;;;;;;21.21;32.30;97978.75;4959201;29;918;-78
2022/06/27 03:52:40;;;;;;;;;;;;;;;21.33;32.29;97983.72;4942500;29;1645;-79
2022/06/27 03:55:07;;;;;;;;;;;;;;;21.39;32.19;97986.81;4919830;29;1874;-78
2022/06/27 03:57:34;;;;;;;;;;;;;;;21.25;32.31;97982.31;4908851;29;1141;-77
2022/06/27 04:00:00;;;;;;;;;;;;;;;21.25;32.35;97982.31;4924197;29;1157;-78
2022/06/27 04:02:27;;;;;;;;;;;;;;;21.43;31.97;97986.72;4924378;29;1906;-78
2022/06/27 04:05:16;;;;;;;;;;;;;;;21.31;32.03;97986.22;4901858;29;1054;-79
2022/06/27 04:07:42;;;;;;;;;;;;;;;21.36;31.55;97986.91;4917813;29;1089;-78
2022/06/27 04:10:08;;;;;;;;;;;;;;;21.24;31.85;97986.38;4917341;29;1769;-78
2022/06/27 04:12:34;;;;;;;;;;;;;;;21.20;31.88;97980.00;4871909;29;1152;-79
2022/06/27 04:15:18;;;;;;;;;;;;;;;21.20;31.71;97985.66;4883094;29;960;-78
2022/06/27 04:18:02;;;;;;;;;;;;;;;21.23;31.86;97981.94;4892571;29;1595;-78
2022/06/27 04:21:03;;;;;;;;;;;;;;;21.18;31.81;97988.13;4875721;29;1000;-78
2022/06/27 04:23:54;;;;;;;;;;;;;;;21.23;31.63;97989.63;4845834;29;1031;-78
2022/06/27 04:26:36;;;;;;;;;;;;;;;21.26;31.70;97994.41;4859342;29;1130;-78
2022/06/27 04:29:02;;;;;;;;;;;;;;;21.23;31.84;97983.97;4865925;29;2072;-79
2022/06/27 04:31:28;;;;;;;;;;;;;;;21.07;32.36;97994.03;4868373;29;1242;-78
2022/06/27 04:33:53;;;;;;;;;;;;;;;21.43;32.86;97995.22;4882881;29;1431;-77
2022/06/27 04:36:19;;;;;;;;;;;;;;;21.71;32.36;97991.63;4879492;29;1546;-77
2022/06/27 04:38:46;;;;;;;;;;;;;;;21.74;32.54;97985.06;4882263;29;1344;-78
2022/06/27 04:41:31;;;;;;;;;;;;;;;21.45;32.57;97989.91;4875118;29;1988;-78
2022/06/27 04:43:57;;;;;;;;;;;;;;;21.65;31.96;97990.56;4846462;29;1024;-78
2022/06/27 04:46:23;;;;;;;;;;;;;;;21.55;31.66;97994.47;4845844;29;1139;-79
2022/06/27 04:48:59;;;;;;;;;;;;;;;21.32;32.29;97993.47;4845863;29;980;-78
2022/06/27 04:51:24;;;;;;;;;;;;;;;21.25;31.97;97987.97;4845857;29;1147;-78
2022/06/27 04:53:50;;;;;;;;;;;;;;;21.38;31.96;97995.75;4864536;29;1222;-78
2022/06/27 04:56:16;;;;;;;;;;;;;;;21.31;32.02;97986.22;4929381;29;1969;-78
2022/06/27 04:58:42;;;;;;;;;;;;;;;21.35;31.54;97985.31;4904076;29;1610;-78
2022/06/27 05:01:09;;;;;;;;;;;;;;;21.14;31.92;97998.75;4900905;29;1234;-78
2022/06/27 05:03:47;;;;;;;;;;;;;;;21.30;31.83;97989.50;4903047;29;1089;-78
2022/06/27 05:06:20;;;;;;;;;;;;;;;21.14;31.90;97983.78;4923130;29;1236;-78
2022/06/27 05:08:46;;;;;;;;;;;;;;;21.24;32.07;97986.38;4939024;29;1616;-79
2022/06/27 05:11:13;;;;;;;;;;;;;;;21.35;31.63;97982.47;4926737;29;1433;-79
2022/06/27 05:13:39;;;;;;;;;;;;;;;21.35;31.95;97990.97;4958184;29;1057;-79
2022/06/27 05:16:14;;;;;;;;;;;;;;;21.52;31.61;97989.72;4957779;29;1407;-78
2022/06/27 05:18:40;;;;;;;;;;;;;;;21.48;32.07;97989.81;4942707;29;1081;-78
2022/06/27 05:21:06;;;;;;;;;;;;;;;21.36;32.19;97998.25;4926019;29;1297;-78
2022/06/27 05:23:32;;;;;;;;;;;;;;;21.28;32.30;97995.53;4941870;29;1977;-79
2022/06/27 05:25:59;;;;;;;;;;;;;;;19.45;32.36;97734.63;4960830;28;1300;-79
2022/06/27 05:28:24;;;;;;;;;;;;;;;21.15;32.15;98011.66;4945452;28;1301;-78
2022/06/27 05:30:50;;;;;;;;;;;;;;;21.12;32.45;98006.88;5004103;28;1435;-78
2022/06/27 05:33:15;;;;;;;;;;;;;;;21.11;32.38;98010.94;5000128;28;1185;-79
2022/06/27 05:35:41;;;;;;;;;;;;;;;21.09;32.31;98021.91;4995873;28;1700;-78
2022/06/27 05:38:07;;;;;;;;;;;;;;;21.18;32.07;98022.06;4999771;28;1298;-78
2022/06/27 05:40:33;;;;;;;;;;;;;;;21.11;32.19;98019.44;4999527;28;1123;-78
2022/06/27 05:42:59;;;;;;;;;;;;;;;21.05;32.29;98018.38;4983371;28;1971;-78
2022/06/27 05:45:24;;;;;;;;;;;;;;;21.61;32.33;98015.38;4999785;28;979;-78
2022/06/27 05:48:10;;;;;;;;;;;;;;;21.74;32.78;98018.25;4957130;28;1118;-78
2022/06/27 05:50:47;;;;;;;;;;;;;;;21.86;33.02;98009.00;4942698;28;1580;-78
2022/06/27 05:53:13;;;;;;;;;;;;;;;21.64;32.66;98014.47;4954137;28;1290;-78
2022/06/27 05:55:40;;;;;;;;;;;;;;;21.62;32.79;98011.31;4941582;28;1341;-78
2022/06/27 05:58:08;;;;;;;;;;;;;;;21.47;32.62;98021.41;4938138;29;1208;-79
2022/06/27 06:00:34;;;;;;;;;;;;;;;21.24;33.15;98026.00;4956661;28;1792;-79
2022/06/27 06:03:00;;;;;;;;;;;;;;;21.45;32.44;98021.84;4957355;28;1999;-78
2022/06/27 06:05:28;;;;;;;;;;;;;;;21.35;32.57;98024.94;4957563;28;1259;-79
2022/06/27 06:07:53;;;;;;;;;;;;;;;21.20;32.78;98030.94;4957045;29;1195;-78
2022/06/27 06:10:21;;;;;;;;;;;;;;;21.91;32.32;98022.63;4956233;29;1471;-77
2022/06/27 06:12:47;;;;;;;;;;;;;;;22.66;30.83;98029.00;4937034;29;1134;-79
2022/06/27 06:15:12;;;;;;;;;;;;;;;23.00;31.20;98034.06;4922989;29;1069;-81
2022/06/27 06:17:39;;;;;;;;;;;;;;;23.38;30.22;98036.88;4922068;29;1347;-81
2022/06/27 06:20:05;;;;;;;;;;;;;;;23.56;30.80;98024.13;4903703;29;1061;-82
2022/06/27 06:22:31;;;;;;;;;;;;;;;23.80;30.39;98028.19;4902830;29;1915;-79
2022/06/27 06:24:57;;;;;;;;;;;;;;;23.94;30.43;98026.09;4894058;29;1228;-79
2022/06/27 06:27:22;;;;;;;;;;;;;;;23.98;29.53;98021.06;4956631;28;1511;-78
2022/06/27 06:29:48;;;;;;;;;;;;;;;24.11;29.81;98016.91;4960340;28;1307;-79
2022/06/27 06:32:14;;;;;;;;;;;;;;;24.14;29.43;98018.06;4944941;29;1283;-83
2022/06/27 06:34:40;;;;;;;;;;;;;;;24.18;29.97;98030.84;4918564;29;1105;-79
2022/06/27 06:37:06;;;;;;;;;;;;;;;24.36;29.32;98024.56;4918428;29;1175;-79
2022/06/27 06:39:32;;;;;;;;;;;;;;;24.15;29.46;98013.94;4902938;29;1063;-78
2022/06/27 06:41:58;;;;;;;;;;;;;;;23.70;30.12;98012.28;4862083;29;1990;-78
2022/06/27 06:44:24;;;;;;;;;;;;;;;24.20;30.00;98019.03;4833091;29;1203;-79
2022/06/27 06:46:55;;;;;;;;;;;;;;;24.07;29.86;98018.28;4825710;29;889;-78
2022/06/27 06:49:44;;;;;;;;;;;;;;;23.68;30.10;98011.97;4789567;30;1447;-78
2022/06/27 06:52:09;;;;;;;;;;;;;;;23.46;31.11;98025.28;4806393;29;1203;-77
2022/06/27 06:54:37;;;;;;;;;;;;;;;23.74;31.75;98007.28;4806339;29;1068;-78
2022/06/27 06:57:03;;;;;;;;;;;;;;;23.98;30.42;98021.06;4797450;29;950;-82
2022/06/27 06:59:28;;;;;;;;;;;;;;;24.15;30.25;98019.63;4782190;30;1213;-81
2022/06/27 07:01:54;;;;;;;;;;;;;;;23.80;30.91;98021.69;4788971;30;1982;-81
2022/06/27 07:04:19;;;;;;;;;;;;;;;23.92;30.54;98015.97;4801156;29;948;-80
2022/06/27 07:06:45;;;;;;;;;;;;;;;23.76;30.95;98021.81;4788720;30;909;-77
2022/06/27 07:09:10;;;;;;;;;;;;;;;23.90;31.34;98027.00;4815528;29;2037;-77
2022/06/27 07:11:37;;;;;;;;;;;;;;;23.62;31.68;98028.78;4819426;29;1314;-77
2022/06/27 07:14:03;;;;;;;;;;;;;;;23.67;31.21;98024.56;4840975;29;1005;-77
2022/06/27 07:16:28;;;;;;;;;;;;;;;23.60;30.93;98024.78;4842874;29;1588;-76
2022/06/27 07:18:55;;;;;;;;;;;;;;;23.58;30.62;98016.75;4849184;29;1674;-78
2022/06/27 07:21:21;;;;;;;;;;;;;;;23.47;30.95;98033.34;4897958;29;934;-77
2022/06/27 07:23:47;;;;;;;;;;;;;;;23.46;30.84;98033.78;4912201;29;1899;-77
2022/06/27 07:26:13;;;;;;;;;;;;;;;23.47;30.30;98026.88;4947335;28;1708;-77
2022/06/27 07:28:38;;;;;;;;;;;;;;;23.32;30.84;98016.00;4965072;28;1745;-77
2022/06/27 07:31:08;;;;;;;;;;;;;;;23.36;30.63;98021.53;4961797;28;1569;-78
2022/06/27 07:33:36;;;;;;;;;;;;;;;23.33;30.35;98022.47;4963257;28;1459;-76
2022/06/27 07:36:02;;;;;;;;;;;;;;;23.31;30.44;98020.09;4956035;29;1112;-77
2022/06/27 07:38:28;;;;;;;;;;;;;;;23.27;30.24;98018.63;4955476;29;977;-77
2022/06/27 07:40:53;;;;;;;;;;;;;;;23.26;30.31;98029.19;4977343;28;864;-77
2022/06/27 07:43:19;;;;;;;;;;;;;;;23.33;30.45;98023.25;5026325;28;1977;-77
2022/06/27 07:45:44;;;;;;;;;;;;;;;23.36;29.94;98016.69;5013615;28;909;-77
2022/06/27 07:48:10;;;;;;;;;;;;;;;23.54;31.80;98021.75;4996589;28;960;-77
2022/06/27 07:50:39;;;;;;;;;;;;;;;24.00;31.52;98019.34;4994231;28;1014;-77
2022/06/27 07:53:12;;;;;;;;;;;;;;;23.91;30.68;98022.13;4963827;28;2356;-79
2022/06/27 07:55:41;;;;;;;;;;;;;;;23.33;32.26;98023.25;4974357;28;967;-76
2022/06/27 07:58:07;;;;;;;;;;;;;;;23.61;31.80;98015.81;4974844;28;977;-79
2022/06/27 08:00:33;;;;;;;;;;;;;;;23.45;32.09;98026.53;4975321;28;988;-76
2022/06/27 08:02:59;;;;;;;;;;;;;;;23.27;32.46;98018.63;4983159;28;1983;-78
2022/06/27 08:05:24;;;;;;;;;;;;;;;23.44;32.74;98016.44;4994082;28;917;-78
2022/06/27 08:07:50;;;;;;;;;;;;;;;23.79;31.63;98015.22;4945332;28;1274;-77
2022/06/27 08:10:16;;;;;;;;;;;;;;;23.64;31.77;98022.66;4978946;28;1660;-78
2022/06/27 08:12:42;;;;;;;;;;;;;;;23.51;32.93;98016.16;4994490;28;1322;-73
2022/06/27 08:15:09;;;;;;;;;;;;;;;23.68;34.16;98017.66;4996557;28;1022;-78
2022/06/27 08:17:34;;;;;;;;;;;;;;;23.32;36.34;98027.34;5028020;28;1019;-74
2022/06/27 08:19:59;;;;;;;;;;;;;;;23.86;36.01;98020.66;4994008;28;2279;-76
2022/06/27 08:22:25;;;;;;;;;;;;;;;23.32;35.96;98033.03;5016396;28;1902;-76
2022/06/27 08:24:51;;;;;;;;;;;;;;;23.52;35.12;98026.28;5019115;28;1327;-76
2022/06/27 08:27:16;;;;;;;;;;;;;;;23.13;35.39;98019.88;5018564;28;983;-78
2022/06/27 08:29:43;;;;;;;;;;;;;;;24.12;34.17;98020.53;5019322;28;848;-78
2022/06/27 08:32:09;;;;;;;;;;;;;;;23.84;35.26;98022.38;5020030;28;927;-79
2022/06/27 08:34:35;;;;;;;;;;;;;;;23.44;35.53;98022.09;5021154;28;1688;-79
2022/06/27 08:37:01;;;;;;;;;;;;;;;23.13;35.16;98019.88;5013472;28;1320;-78
2022/06/27 08:39:28;;;;;;;;;;;;;;;22.83;35.51;98027.66;4980618;28;1765;-78
2022/06/27 08:41:53;;;;;;;;;;;;;;;22.66;35.36;98026.19;4962380;29;1973;-78
2022/06/27 08:44:19;;;;;;;;;;;;;;;22.61;34.99;98023.91;4904451;29;1175;-78
2022/06/27 08:46:47;;;;;;;;;;;;;;;22.76;34.13;98022.22;4923714;29;879;-78
2022/06/27 08:49:14;;;;;;;;;;;;;;;22.84;33.63;98012.22;4942134;29;888;-79
2022/06/27 08:51:39;;;;;;;;;;;;;;;22.42;34.24;98007.88;4943374;29;916;-78
2022/06/27 08:54:06;;;;;;;;;;;;;;;22.41;34.18;98015.59;4902614;29;1486;-78
2022/06/27 08:56:32;;;;;;;;;;;;;;;22.38;34.01;98012.84;4884087;29;1488;-79
2022/06/27 08:58:59;;;;;;;;;;;;;;;22.56;33.61;98011.06;4876334;29;1368;-78
2022/06/27 09:01:27;;;;;;;;;;;;;;;22.26;34.23;98003.88;4867609;29;996;-79
2022/06/27 09:03:58;;;;;;;;;;;;;;;22.62;33.35;97997.13;4866661;29;1992;-78
2022/06/27 09:06:25;;;;;;;;;;;;;;;22.27;33.91;98010.31;4867344;29;921;-79
2022/06/27 09:09:09;;;;;;;;;;;;;;;22.34;33.69;97999.59;4835449;29;975;-78
2022/06/27 09:11:38;;;;;;;;;;;;;;;22.39;33.16;98005.94;4777696;29;1210;-79
2022/06/27 09:14:05;;;;;;;;;;;;;;;22.28;33.20;98012.72;4764136;30;1483;-78
2022/06/27 09:16:31;;;;;;;;;;;;;;;22.18;33.69;98002.50;4725947;30;953;-78
2022/06/27 09:18:57;;;;;;;;;;;;;;;22.46;33.32;98002.91;4756457;30;891;-79
2022/06/27 09:21:23;;;;;;;;;;;;;;;22.26;33.31;97998.19;4758626;30;958;-78
2022/06/27 09:23:49;;;;;;;;;;;;;;;22.38;32.95;97998.66;4791173;30;1920;-79
2022/06/27 09:26:18;;;;;;;;;;;;;;;22.67;32.62;97999.41;4788895;29;1243;-78
2022/06/27 09:28:43;;;;;;;;;;;;;;;22.42;32.96;98005.03;4839279;29;1523;-78
2022/06/27 09:31:10;;;;;;;;;;;;;;;22.68;32.63;98005.88;4862055;29;1610;-79
2022/06/27 09:33:38;;;;;;;;;;;;;;;22.65;32.71;97996.22;4910806;29;1669;-78
2022/06/27 09:36:13;;;;;;;;;;;;;;;22.70;32.84;97992.84;4923717;29;907;-81
2022/06/27 09:38:39;;;;;;;;;;;;;;;22.72;32.95;97993.16;4902742;29;1270;-84
2022/06/27 09:41:05;;;;;;;;;;;;;;;23.09;32.15;97987.97;4886218;29;1238;-81
2022/06/27 09:43:34;;;;;;;;;;;;;;;22.97;32.11;97991.63;4827014;29;1984;-80
2022/06/27 09:45:59;;;;;;;;;;;;;;;23.30;31.77;97980.78;4812679;29;1153;-81
2022/06/27 09:48:26;;;;;;;;;;;;;;;23.09;32.00;97985.13;4795422;29;920;-82
2022/06/27 09:50:51;;;;;;;;;;;;;;;23.10;32.89;97992.38;4813849;29;942;-86
2022/06/27 09:53:18;;;;;;;;;;;;;;;23.89;31.71;97974.28;4797206;29;999;-81
2022/06/27 09:55:46;;;;;;;;;;;;;;;24.12;31.55;97986.44;4791975;30;1120;-82
2022/06/27 09:58:11;;;;;;;;;;;;;;;24.11;31.43;97982.00;4772918;30;2060;-83
2022/06/27 10:00:37;;;;;;;;;;;;;;;24.11;31.41;97984.84;4778115;30;996;-85
2022/06/27 10:03:05;;;;;;;;;;;;;;;24.02;31.64;97981.94;4756261;30;1911;-84
2022/06/27 10:05:31;;;;;;;;;;;;;;;24.00;31.79;97990.13;4756982;30;1448;-83
2022/06/27 10:07:58;;;;;;;;;;;;;;;24.48;31.36;97990.81;4790687;30;1003;-76
2022/06/27 10:10:23;;;;;;;;;;;;;;;24.24;31.83;97988.41;4802507;29;1007;-76
2022/06/27 10:12:58;;;;;;;;;;;;;;;24.70;32.11;97991.53;4779916;29;1370557;-79
2022/06/27 10:15:25;;;;;;;;;;;;;;;24.54;33.34;97986.88;4888828;29;2072;-76
2022/06/27 10:17:51;;;;;;;;;;;;;;;22.97;34.50;97779.59;4909084;29;1028;-77
2022/06/27 10:20:19;;;;;;;;;;;;;;;24.40;34.59;97985.41;4939993;29;1109;-80
2022/06/27 10:22:46;;;;;;;;;;;;;;;24.02;35.06;97993.31;4952121;29;1883;-81
2022/06/27 10:25:27;;;;;;;;;;;;;;;23.72;34.91;97980.56;4913250;29;1270;-81
2022/06/27 10:28:08;;;;;;;;;;;;;;;23.84;34.17;97983.38;4892147;29;1733;-82
2022/06/27 10:30:37;;;;;;;;;;;;;;;23.82;33.82;97974.50;4876247;29;1694;-81
2022/06/27 10:33:22;;;;;;;;;;;;;;;23.81;33.81;97972.94;4889049;29;1082;-81
2022/06/27 10:36:16;;;;;;;;;;;;;;;24.21;33.02;97972.28;4873938;29;891;-80
2022/06/27 10:38:42;;;;;;;;;;;;;;;24.97;31.13;97973.03;4883458;29;1307;-82
2022/06/27 10:41:08;;;;;;;;;;;;;;;24.59;31.60;97957.03;4884489;29;922;-82
2022/06/27 10:43:36;;;;;;;;;;;;;;;24.70;31.65;97943.19;4883387;29;1884;-77
2022/06/27 10:46:05;;;;;;;;;;;;;;;24.62;31.29;97956.13;4908183;29;999;-79
2022/06/27 10:48:34;;;;;;;;;;;;;;;24.06;32.20;97954.19;4905911;29;950;-78
2022/06/27 10:51:18;;;;;;;;;;;;;;;24.33;31.43;97950.72;4869613;29;978;-78
2022/06/27 10:53:46;;;;;;;;;;;;;;;24.15;31.93;97951.41;4839123;29;1358;-78
2022/06/27 10:56:35;;;;;;;;;;;;;;;23.89;32.02;97945.06;4869974;29;1035;-76
2022/06/27 10:59:01;;;;;;;;;;;;;;;23.98;31.50;97941.47;4845439;29;2027;-81
2022/06/27 11:01:26;;;;;;;;;;;;;;;24.15;31.51;97942.88;4857148;29;1875;-77
2022/06/27 11:03:52;;;;;;;;;;;;;;;23.90;31.70;97941.75;4885008;29;2013;-79
2022/06/27 11:06:17;;;;;;;;;;;;;;;24.04;31.86;97933.97;4890931;29;875;-79
2022/06/27 11:08:44;;;;;;;;;;;;;;;23.91;31.69;97929.13;4886335;29;976;-79
2022/06/27 11:11:14;;;;;;;;;;;;;;;24.06;31.21;97928.59;4896428;29;1089;-81
2022/06/27 11:13:41;;;;;;;;;;;;;;;23.74;31.82;97930.59;4841416;29;1204;-78
2022/06/27 11:16:08;;;;;;;;;;;;;;;23.95;31.04;97925.38;4821382;29;1127;-80
2022/06/27 11:18:54;;;;;;;;;;;;;;;24.01;31.35;97932.81;4810195;29;1264;-81
2022/06/27 11:21:20;;;;;;;;;;;;;;;24.13;31.60;97920.56;4818775;29;1145;-78
2022/06/27 11:23:55;;;;;;;;;;;;;;;24.55;31.04;97919.41;4807346;29;2002;-76
2022/06/27 11:26:21;;;;;;;;;;;;;;;24.82;30.17;97919.53;4761786;30;1375;-76
2022/06/27 11:34:15;;;;;;;;;;;;;;;24.17;30.74;97909.06;4762765;30;1689;-81
2022/06/27 11:36:40;;;;;;;;;;;;;;;23.70;31.70;97907.19;4744043;30;957;-81
2022/06/27 11:39:06;;;;;;;;;;;;;;;23.45;31.96;97915.78;4754978;30;1009;-81
2022/06/27 11:41:32;;;;;;;;;;;;;;;23.59;31.73;97915.28;4786382;30;1559;-82
2022/06/27 11:44:01;;;;;;;;;;;;;;;23.82;31.23;97906.31;4798632;30;1915;-80
2022/06/27 11:46:29;;;;;;;;;;;;;;;23.43;31.62;97912.63;4815102;29;1533;-81
2022/06/27 11:48:56;;;;;;;;;;;;;;;23.23;32.04;97916.53;4830484;29;986;-81
2022/06/27 11:51:26;;;;;;;;;;;;;;;23.29;31.80;97914.69;4819475;29;979;-82
2022/06/27 11:53:52;;;;;;;;;;;;;;;23.42;31.76;97911.81;4804806;29;1750;-81
2022/06/27 11:56:25;;;;;;;;;;;;;;;23.72;30.79;97912.41;4823672;29;1541;-81
2022/06/27 11:58:51;;;;;;;;;;;;;;;23.48;31.58;97914.88;4856292;29;1005;-80
2022/06/27 12:01:16;;;;;;;;;;;;;;;23.69;30.95;97902.75;4860097;29;1119;-81
2022/06/27 12:04:02;;;;;;;;;;;;;;;23.35;31.35;97907.16;4856573;29;1907;-82
2022/06/27 12:06:30;;;;;;;;;;;;;;;23.16;31.76;97905.44;4859041;29;823;-81
2022/06/27 12:08:59;;;;;;;;;;;;;;;23.42;31.19;97916.72;4876002;29;894;-82
2022/06/27 12:11:27;;;;;;;;;;;;;;;23.54;30.95;97918.72;4858568;29;1184;-82
2022/06/27 12:13:57;;;;;;;;;;;;;;;23.73;31.33;97926.16;4853488;29;1063;-73
2022/06/27 12:16:23;;;;;;;;;;;;;;;23.82;32.53;97940.41;4844283;29;1003;-70
2022/06/27 12:18:51;;;;;;;;;;;;;;;24.10;33.35;97937.78;4839034;29;1013;-71
2022/06/27 12:21:20;;;;;;;;;;;;;;;24.11;34.64;97930.84;4848298;29;1004;-73
2022/06/27 12:23:45;;;;;;;;;;;;;;;24.35;34.48;97937.66;4867354;29;1919;-76
2022/06/27 12:26:11;;;;;;;;;;;;;;;23.92;34.60;97922.19;4941653;28;834;-77
2022/06/27 12:28:36;;;;;;;;;;;;;;;24.08;33.69;97926.06;4978407;28;947;-78
2022/06/27 12:31:02;;;;;;;;;;;;;;;23.77;33.29;97932.47;4978404;28;930;-77
2022/06/27 12:33:27;;;;;;;;;;;;;;;23.60;33.43;97939.59;4957046;29;1494;-77
2022/06/27 12:35:53;;;;;;;;;;;;;;;23.61;32.53;97933.44;4958524;29;1074;-76
2022/06/27 12:38:18;;;;;;;;;;;;;;;23.73;31.78;97943.22;4946892;29;1804;-77
2022/06/27 12:40:44;;;;;;;;;;;;;;;23.34;32.01;97936.81;4958686;29;933;-76
2022/06/27 12:43:09;;;;;;;;;;;;;;;23.52;31.78;97938.22;4990367;28;1915;-76
2022/06/27 12:45:35;;;;;;;;;;;;;;;23.20;31.83;97957.19;4997301;28;996;-76
2022/06/27 12:48:10;;;;;;;;;;;;;;;23.59;30.73;97952.19;4977700;28;1012;-77
2022/06/27 12:50:35;;;;;;;;;;;;;;;23.30;31.27;97943.88;4978308;28;932;-76
2022/06/27 12:53:01;;;;;;;;;;;;;;;23.28;30.90;97940.72;4977104;28;2401;-77
2022/06/27 12:55:26;;;;;;;;;;;;;;;23.40;30.34;97943.50;4977915;28;882;-76
2022/06/27 12:57:52;;;;;;;;;;;;;;;23.19;30.47;97941.41;4939169;29;982;-76
2022/06/27 13:00:17;;;;;;;;;;;;;;;23.09;30.88;97934.03;4939478;29;941;-77
2022/06/27 13:02:43;;;;;;;;;;;;;;;23.19;30.34;97944.25;4939607;29;1984;-77
2022/06/27 13:05:09;;;;;;;;;;;;;;;22.87;30.64;97943.25;4939281;29;947;-77
2022/06/27 13:07:35;;;;;;;;;;;;;;;22.90;30.36;97944.41;4919754;29;1208;-76
2022/06/27 13:10:01;;;;;;;;;;;;;;;23.15;30.11;97937.88;4900360;29;1766;-76